Darstellungsparameter: Aktuell verwendete Einstellungen:
Skalierung der Graphiken ... ?
xyx+y,   Skalierungsfaktor:      Skalierung: Modus: x, Faktor: 1
Darstellungszeitraum ... ?
Vom - - bis: - -   Zeitraum: 30.04.2020 - 01.05.2020
Min/Max/Avg-Anzeige ... ?
Zeige MMA aktuell
Zeige MMA Monat
Zeige MMA alles
Zeige --A aktuell
Zeige --A Monat
Zeige --A alles
Keine MMA-Anzeige
MMA:
Minimum Maximum Average (ber die Originaldaten)
MMA-Basis: 23.02.2003 - 02.05.2020
Quicknavigation für Darstellung... ?
Tage:      1T, 2T, 3T, 5T -1T -2T -3T -5T +1T +2T +3T +5T
Wochen: 1W, 2W, 3W -1W -2W -3W +1W +2W +3W
Monate: 1M, 3M, 6M -1M -3M -6M +1M +3M +6M
Jahre:    1J, 3J, 5J, 10J -1J -3J -5J -10J +1J +3J +5J +10J
Nutze für die Darstellung ... ?
Originaldaten oder Mittelwerte auf ...
Stundenbasis Tagesbasis Wochenbasis
Monatsbasis Jahresbasis      Datenbasis: Original-Daten
Darstellen als:
Statistik (Auto) Statistik J:M      Darstellung:
Zur Graphik,    zurück zur Übersicht aller Sensoren.
 
Tabellarische Datenbersicht: ?
 
Sensor: Nr:Datum:Temp:Abs-Feuchte:Windchill:Wind:
Aussen-T/F 1 30-04-2020 00:00:00 13.2 C 9.42 g/m*3 13.2 C 11.3 km/h
2 30-04-2020 00:05:00 13.2 C 9.3 g/m*3 13.2 C 1.6 km/h
3 30-04-2020 00:10:00 13.2 C 9.3 g/m*3 13.2 C 8.1 km/h
4 30-04-2020 00:15:00 13.2 C 9.3 g/m*3 13.2 C 1.6 km/h
5 30-04-2020 00:20:00 13.2 C 9.42 g/m*3 13.2 C 0 km/h
6 30-04-2020 00:25:00 13.2 C 9.3 g/m*3 13.2 C 3.2 km/h
7 30-04-2020 00:30:00 13.2 C 9.3 g/m*3 13.2 C 3.2 km/h
8 30-04-2020 00:35:00 13.2 C 9.3 g/m*3 13.2 C 3.2 km/h
9 30-04-2020 00:40:00 13.3 C 9.36 g/m*3 13.3 C 3.2 km/h
10 30-04-2020 00:45:00 13.2 C 9.19 g/m*3 13.2 C 8.1 km/h
11 30-04-2020 00:50:00 13.3 C 9.36 g/m*3 13.3 C 0 km/h
12 30-04-2020 00:55:00 13.3 C 9.36 g/m*3 13.3 C 0 km/h
13 30-04-2020 01:00:00 13.3 C 9.24 g/m*3 13.3 C 3.2 km/h
14 30-04-2020 01:05:00 13.3 C 9.24 g/m*3 13.3 C 3.2 km/h
15 30-04-2020 01:10:00 13.3 C 9.13 g/m*3 13.3 C 4.8 km/h
16 30-04-2020 01:15:00 13.4 C 9.18 g/m*3 13.4 C 8.1 km/h
17 30-04-2020 01:20:00 13.4 C 9.18 g/m*3 13.4 C 4.8 km/h
18 30-04-2020 01:25:00 13.4 C 9.18 g/m*3 13.4 C 8.1 km/h
19 30-04-2020 01:30:00 13.4 C 9.18 g/m*3 13.4 C 3.2 km/h
20 30-04-2020 01:35:00 13.4 C 9.18 g/m*3 13.4 C 4.8 km/h
21 30-04-2020 01:40:00 13.5 C 9.12 g/m*3 13.5 C 6.4 km/h
22 30-04-2020 01:45:00 13.6 C 9.18 g/m*3 13.6 C 3.2 km/h
23 30-04-2020 01:50:00 13.6 C 9.42 g/m*3 13.6 C 0 km/h
24 30-04-2020 01:55:00 13.6 C 9.42 g/m*3 13.6 C 14.5 km/h
25 30-04-2020 02:00:00 13.4 C 9.53 g/m*3 13.4 C 14.5 km/h
Sensor: Nr:Datum:Temp:Abs-Feuchte:Windchill:Wind:
Aussen-T/F 26 30-04-2020 02:05:00 13.3 C 9.47 g/m*3 13.3 C 9.7 km/h
27 30-04-2020 02:10:00 13.2 C 9.64 g/m*3 13.2 C 1.6 km/h
28 30-04-2020 02:15:00 13 C 9.53 g/m*3 13 C 4.8 km/h
29 30-04-2020 02:20:00 12.8 C 9.41 g/m*3 12.8 C 4.8 km/h
30 30-04-2020 02:25:00 12.7 C 9.46 g/m*3 12.7 C 3.2 km/h
31 30-04-2020 02:30:00 12.6 C 9.4 g/m*3 12.6 C 3.2 km/h
32 30-04-2020 02:35:00 12.4 C 9.18 g/m*3 12.4 C 4.8 km/h
33 30-04-2020 02:40:00 12.4 C 9.18 g/m*3 12.4 C 1.6 km/h
34 30-04-2020 02:45:00 12.3 C 9.12 g/m*3 12.3 C 3.2 km/h
35 30-04-2020 02:50:00 12.2 C 9.06 g/m*3 12.2 C 1.6 km/h
36 30-04-2020 02:55:00 12.2 C 8.96 g/m*3 12.2 C 6.4 km/h
37 30-04-2020 03:00:00 12.2 C 8.96 g/m*3 12.2 C 1.6 km/h
38 30-04-2020 03:05:00 12.2 C 9.06 g/m*3 12.2 C 4.8 km/h
39 30-04-2020 03:10:00 12.1 C 9.01 g/m*3 12.1 C 4.8 km/h
40 30-04-2020 03:15:00 12.2 C 9.06 g/m*3 12.2 C 1.6 km/h
41 30-04-2020 03:20:00 12.1 C 9.01 g/m*3 12.1 C 4.8 km/h
42 30-04-2020 03:25:00 12.1 C 9.01 g/m*3 12.1 C 3.2 km/h
43 30-04-2020 03:30:00 12.1 C 9.12 g/m*3 12.1 C 0 km/h
44 30-04-2020 03:35:00 11.9 C 9.11 g/m*3 11.9 C 3.2 km/h
45 30-04-2020 03:40:00 11.9 C 9.11 g/m*3 11.9 C 0 km/h
46 30-04-2020 03:45:00 11.8 C 9.16 g/m*3 11.8 C 0 km/h
47 30-04-2020 03:50:00 11.8 C 9.16 g/m*3 11.8 C 6.4 km/h
48 30-04-2020 03:55:00 11.7 C 9.1 g/m*3 11.7 C 3.2 km/h
49 30-04-2020 04:00:00 11.7 C 9.2 g/m*3 11.7 C 0 km/h
50 30-04-2020 04:05:00 11.7 C 9.2 g/m*3 11.7 C 0 km/h
Sensor: Nr:Datum:Temp:Abs-Feuchte:Windchill:Wind:
Aussen-T/F 51 30-04-2020 04:10:00 11.7 C 9.31 g/m*3 11.7 C 0 km/h
52 30-04-2020 04:15:00 11.6 C 9.25 g/m*3 11.6 C 0 km/h
53 30-04-2020 04:20:00 11.6 C 9.35 g/m*3 11.6 C 0 km/h
54 30-04-2020 04:25:00 11.5 C 9.3 g/m*3 11.5 C 3.2 km/h
55 30-04-2020 04:30:00 11.4 C 9.34 g/m*3 11.4 C 3.2 km/h
56 30-04-2020 04:35:00 11.4 C 9.34 g/m*3 11.4 C 0 km/h
57 30-04-2020 04:40:00 11.4 C 9.34 g/m*3 11.4 C 0 km/h
58 30-04-2020 04:45:00 11.3 C 9.38 g/m*3 11.3 C 0 km/h
59 30-04-2020 04:50:00 11.3 C 9.38 g/m*3 11.3 C 0 km/h
60 30-04-2020 04:55:00 11.3 C 9.38 g/m*3 11.3 C 0 km/h
61 30-04-2020 05:00:00 11.3 C 9.38 g/m*3 11.3 C 1.6 km/h
62 30-04-2020 05:05:00 11.3 C 9.49 g/m*3 11.3 C 0 km/h
63 30-04-2020 05:10:00 11.3 C 9.49 g/m*3 11.3 C 0 km/h
64 30-04-2020 05:15:00 11.3 C 9.49 g/m*3 11.3 C 1.6 km/h
65 30-04-2020 05:20:00 11.3 C 9.49 g/m*3 11.3 C 0 km/h
66 30-04-2020 05:25:00 11.3 C 9.49 g/m*3 11.3 C 1.6 km/h
67 30-04-2020 05:30:00 11.3 C 9.59 g/m*3 11.3 C 1.6 km/h
68 30-04-2020 05:35:00 11.3 C 9.59 g/m*3 11.3 C 1.6 km/h
69 30-04-2020 05:40:00 11.3 C 9.59 g/m*3 11.3 C 3.2 km/h
70 30-04-2020 05:45:00 11.3 C 9.59 g/m*3 11.3 C 0 km/h
71 30-04-2020 05:50:00 11.3 C 9.59 g/m*3 11.3 C 1.6 km/h
72 30-04-2020 05:55:00 11.2 C 9.53 g/m*3 11.2 C 1.6 km/h
73 30-04-2020 06:00:00 11.2 C 9.53 g/m*3 11.2 C 6.4 km/h
74 30-04-2020 06:05:00 11.2 C 9.53 g/m*3 11.2 C 8.1 km/h
75 30-04-2020 06:10:00 11.2 C 9.53 g/m*3 11.2 C 1.6 km/h
Sensor: Nr:Datum:Temp:Abs-Feuchte:Windchill:Wind:
Aussen-T/F 76 30-04-2020 06:15:00 11.2 C 9.53 g/m*3 11.2 C 1.6 km/h
77 30-04-2020 06:20:00 11.2 C 9.53 g/m*3 11.2 C 3.2 km/h
78 30-04-2020 06:25:00 11.2 C 9.53 g/m*3 11.2 C 1.6 km/h
79 30-04-2020 06:30:00 11.2 C 9.53 g/m*3 11.2 C 3.2 km/h
80 30-04-2020 06:35:00 11.2 C 9.53 g/m*3 11.2 C 0 km/h
81 30-04-2020 06:40:00 11.2 C 9.53 g/m*3 11.2 C 1.6 km/h
82 30-04-2020 06:45:00 11.2 C 9.53 g/m*3 11.2 C 0 km/h
83 30-04-2020 06:50:00 11.2 C 9.63 g/m*3 11.2 C 3.2 km/h
84 30-04-2020 06:55:00 11.2 C 9.63 g/m*3 11.2 C 0 km/h
85 30-04-2020 07:00:00 11.2 C 9.63 g/m*3 11.2 C 11.3 km/h
86 30-04-2020 07:05:00 11.1 C 9.47 g/m*3 11.1 C 9.7 km/h
87 30-04-2020 07:10:00 10.9 C 9.35 g/m*3 10.04 C 8.1 km/h
88 30-04-2020 07:15:00 10.8 C 9.29 g/m*3 9.64 C 9.7 km/h
89 30-04-2020 07:20:00 10.7 C 9.23 g/m*3 10.7 C 1.6 km/h
90 30-04-2020 07:25:00 10.6 C 9.17 g/m*3 9.69 C 8.1 km/h
91 30-04-2020 07:30:00 10.6 C 9.17 g/m*3 10.06 C 6.4 km/h
92 30-04-2020 07:35:00 10.6 C 9.17 g/m*3 10.06 C 6.4 km/h
93 30-04-2020 07:40:00 10.6 C 9.17 g/m*3 9.4 C 9.7 km/h
94 30-04-2020 07:45:00 10.6 C 9.17 g/m*3 10.6 C 3.2 km/h
95 30-04-2020 07:50:00 10.5 C 9.12 g/m*3 10.5 C 4.8 km/h
96 30-04-2020 07:55:00 10.4 C 9.06 g/m*3 10.4 C 4.8 km/h
97 30-04-2020 08:00:00 10.4 C 9.06 g/m*3 9.16 C 9.7 km/h
98 30-04-2020 08:05:00 10.3 C 9 g/m*3 9.34 C 8.1 km/h
99 30-04-2020 08:10:00 10.3 C 9 g/m*3 9.04 C 9.7 km/h
100 30-04-2020 08:15:00 10.2 C 8.95 g/m*3 9.6 C 6.4 km/h
Sensor: Nr:Datum:Temp:Abs-Feuchte:Windchill:Wind:
Aussen-T/F 101 30-04-2020 08:20:00 10.2 C 8.95 g/m*3 10.2 C 4.8 km/h
102 30-04-2020 08:25:00 10.2 C 8.95 g/m*3 10.2 C 3.2 km/h
103 30-04-2020 08:30:00 10.4 C 9.06 g/m*3 8.67 C 12.9 km/h
104 30-04-2020 08:35:00 10.6 C 9.17 g/m*3 9.14 C 11.3 km/h
105 30-04-2020 08:40:00 10.7 C 9.23 g/m*3 9.52 C 9.7 km/h
106 30-04-2020 08:45:00 10.8 C 9.29 g/m*3 10.8 C 3.2 km/h
107 30-04-2020 08:50:00 10.8 C 9.19 g/m*3 9.38 C 11.3 km/h
108 30-04-2020 08:55:00 10.8 C 9.19 g/m*3 9.64 C 9.7 km/h
109 30-04-2020 09:00:00 10.9 C 9.25 g/m*3 9.51 C 11.3 km/h
110 30-04-2020 09:05:00 11 C 9.31 g/m*3 9.88 C 9.7 km/h
111 30-04-2020 09:10:00 11.2 C 9.33 g/m*3 11.2 C 16.1 km/h
112 30-04-2020 09:15:00 11.3 C 9.28 g/m*3 11.3 C 14.5 km/h
113 30-04-2020 09:20:00 11.6 C 9.35 g/m*3 11.6 C 8.1 km/h
114 30-04-2020 09:25:00 11.7 C 9.52 g/m*3 11.7 C 8.1 km/h
115 30-04-2020 09:30:00 11.8 C 9.58 g/m*3 11.8 C 3.2 km/h
116 30-04-2020 09:35:00 11.9 C 9.53 g/m*3 11.9 C 11.3 km/h
117 30-04-2020 09:40:00 12 C 9.59 g/m*3 12 C 8.1 km/h
118 30-04-2020 09:45:00 12.1 C 9.54 g/m*3 12.1 C 8.1 km/h
119 30-04-2020 09:50:00 12.2 C 9.5 g/m*3 12.2 C 8.1 km/h
120 30-04-2020 09:55:00 12.2 C 9.5 g/m*3 12.2 C 9.7 km/h
121 30-04-2020 10:00:00 12.3 C 9.56 g/m*3 12.3 C 8.1 km/h
122 30-04-2020 10:05:00 12.6 C 9.74 g/m*3 12.6 C 12.9 km/h
123 30-04-2020 10:10:00 12.7 C 9.57 g/m*3 12.7 C 11.3 km/h
124 30-04-2020 10:15:00 12.9 C 9.69 g/m*3 12.9 C 9.7 km/h
125 30-04-2020 10:20:00 13.2 C 9.64 g/m*3 13.2 C 11.3 km/h
Sensor: Nr:Datum:Temp:Abs-Feuchte:Windchill:Wind:
Aussen-T/F 126 30-04-2020 10:25:00 13.3 C 9.36 g/m*3 13.3 C 11.3 km/h
127 30-04-2020 10:30:00 13.3 C 9.36 g/m*3 13.3 C 19.3 km/h
128 30-04-2020 10:35:00 13.3 C 9.36 g/m*3 13.3 C 14.5 km/h
129 30-04-2020 10:40:00 13.4 C 9.18 g/m*3 13.4 C 12.9 km/h
130 30-04-2020 10:45:00 13.6 C 9.06 g/m*3 13.6 C 17.7 km/h
131 30-04-2020 10:50:00 13.7 C 9.12 g/m*3 13.7 C 19.3 km/h
132 30-04-2020 10:55:00 13.7 C 9.24 g/m*3 13.7 C 12.9 km/h
133 30-04-2020 11:00:00 13.7 C 8.88 g/m*3 13.7 C 16.1 km/h
134 30-04-2020 11:05:00 13.8 C 9.17 g/m*3 13.8 C 8.1 km/h
135 30-04-2020 11:10:00 13.8 C 9.06 g/m*3 13.8 C 11.3 km/h
136 30-04-2020 11:15:00 13.8 C 9.06 g/m*3 13.8 C 11.3 km/h
137 30-04-2020 11:20:00 13.9 C 9.23 g/m*3 13.9 C 8.1 km/h
138 30-04-2020 11:25:00 13.9 C 9.47 g/m*3 13.9 C 8.1 km/h
139 30-04-2020 11:30:00 14 C 9.41 g/m*3 14 C 11.3 km/h
140 30-04-2020 11:35:00 14.1 C 9.47 g/m*3 14.1 C 6.4 km/h
141 30-04-2020 11:40:00 13.9 C 9.23 g/m*3 13.9 C 9.7 km/h
142 30-04-2020 11:45:00 13.8 C 9.41 g/m*3 13.8 C 8.1 km/h
143 30-04-2020 11:50:00 13.8 C 9.41 g/m*3 13.8 C 9.7 km/h
144 30-04-2020 11:55:00 13.8 C 9.17 g/m*3 13.8 C 12.9 km/h
145 30-04-2020 12:00:00 13.9 C 9.11 g/m*3 13.9 C 11.3 km/h
146 30-04-2020 12:05:00 13.9 C 8.87 g/m*3 13.9 C 17.7 km/h
147 30-04-2020 12:10:00 13.9 C 8.87 g/m*3 13.9 C 16.1 km/h
148 30-04-2020 12:15:00 13.9 C 8.75 g/m*3 13.9 C 16.1 km/h
149 30-04-2020 12:20:00 13.9 C 8.75 g/m*3 13.9 C 12.9 km/h
150 30-04-2020 12:25:00 14 C 8.56 g/m*3 14 C 14.5 km/h
Sensor: Nr:Datum:Temp:Abs-Feuchte:Windchill:Wind:
Aussen-T/F 151 30-04-2020 12:30:00 14 C 8.93 g/m*3 14 C 11.3 km/h
152 30-04-2020 12:35:00 14.1 C 8.86 g/m*3 14.1 C 17.7 km/h
153 30-04-2020 12:40:00 13.9 C 8.39 g/m*3 13.9 C 17.7 km/h
154 30-04-2020 12:45:00 13.8 C 8.34 g/m*3 13.8 C 14.5 km/h
155 30-04-2020 12:50:00 13.9 C 8.39 g/m*3 13.9 C 17.7 km/h
156 30-04-2020 12:55:00 13.9 C 8.03 g/m*3 13.9 C 29 km/h
157 30-04-2020 13:00:00 13.8 C 8.22 g/m*3 13.8 C 29 km/h
158 30-04-2020 13:05:00 13.8 C 8.1 g/m*3 13.8 C 19.3 km/h
159 30-04-2020 13:10:00 13.8 C 8.22 g/m*3 13.8 C 14.5 km/h
160 30-04-2020 13:15:00 13.9 C 8.15 g/m*3 13.9 C 14.5 km/h
161 30-04-2020 13:20:00 14 C 8.2 g/m*3 14 C 14.5 km/h
162 30-04-2020 13:25:00 13.9 C 7.91 g/m*3 13.9 C 19.3 km/h
163 30-04-2020 13:30:00 13.9 C 8.03 g/m*3 13.9 C 16.1 km/h
164 30-04-2020 13:35:00 14 C 8.08 g/m*3 14 C 17.7 km/h
165 30-04-2020 13:40:00 14.1 C 7.89 g/m*3 14.1 C 12.9 km/h
166 30-04-2020 13:45:00 14.3 C 8.11 g/m*3 14.3 C 14.5 km/h
167 30-04-2020 13:50:00 14.6 C 8.26 g/m*3 14.6 C 12.9 km/h
168 30-04-2020 13:55:00 14.8 C 7.98 g/m*3 14.8 C 16.1 km/h
169 30-04-2020 14:00:00 14.9 C 8.03 g/m*3 14.9 C 20.9 km/h
170 30-04-2020 14:05:00 15.1 C 8.26 g/m*3 15.1 C 16.1 km/h
171 30-04-2020 14:10:00 15.5 C 8.2 g/m*3 15.5 C 14.5 km/h
172 30-04-2020 14:15:00 15.6 C 7.85 g/m*3 15.6 C 20.9 km/h
173 30-04-2020 14:20:00 15.4 C 7.88 g/m*3 15.4 C 17.7 km/h
174 30-04-2020 14:25:00 15.3 C 8.1 g/m*3 15.3 C 12.9 km/h
175 30-04-2020 14:30:00 15.4 C 8.01 g/m*3 15.4 C 14.5 km/h
Sensor: Nr:Datum:Temp:Abs-Feuchte:Windchill:Wind:
Aussen-T/F 176 30-04-2020 14:35:00 15.8 C 8.21 g/m*3 15.8 C 17.7 km/h
177 30-04-2020 14:40:00 15.9 C 7.99 g/m*3 15.9 C 17.7 km/h
178 30-04-2020 14:45:00 15.8 C 7.94 g/m*3 15.8 C 17.7 km/h
179 30-04-2020 14:50:00 15.8 C 8.08 g/m*3 15.8 C 17.7 km/h
180 30-04-2020 14:55:00 15.8 C 8.08 g/m*3 15.8 C 16.1 km/h
181 30-04-2020 15:00:00 15.9 C 8.4 g/m*3 15.9 C 9.7 km/h
182 30-04-2020 15:05:00 16.2 C 8 g/m*3 16.2 C 17.7 km/h
183 30-04-2020 15:10:00 16.3 C 8.19 g/m*3 16.3 C 14.5 km/h
184 30-04-2020 15:15:00 16.3 C 8.05 g/m*3 16.3 C 11.3 km/h
185 30-04-2020 15:20:00 16.2 C 7.86 g/m*3 16.2 C 12.9 km/h
186 30-04-2020 15:25:00 16.1 C 7.95 g/m*3 16.1 C 11.3 km/h
187 30-04-2020 15:30:00 16.1 C 7.95 g/m*3 16.1 C 11.3 km/h
188 30-04-2020 15:35:00 15.8 C 7.81 g/m*3 15.8 C 11.3 km/h
189 30-04-2020 15:40:00 15.6 C 7.71 g/m*3 15.6 C 14.5 km/h
190 30-04-2020 15:45:00 15.4 C 7.75 g/m*3 15.4 C 9.7 km/h
191 30-04-2020 15:50:00 15.4 C 8.01 g/m*3 15.4 C 4.8 km/h
192 30-04-2020 15:55:00 15.3 C 8.1 g/m*3 15.3 C 3.2 km/h
193 30-04-2020 16:00:00 15.4 C 8.15 g/m*3 15.4 C 1.6 km/h
194 30-04-2020 16:05:00 15.4 C 8.01 g/m*3 15.4 C 4.8 km/h
195 30-04-2020 16:10:00 15.5 C 7.93 g/m*3 15.5 C 4.8 km/h
196 30-04-2020 16:15:00 15.6 C 8.25 g/m*3 15.6 C 4.8 km/h
197 30-04-2020 16:20:00 15.7 C 8.3 g/m*3 15.7 C 11.3 km/h
198 30-04-2020 16:25:00 15.7 C 8.3 g/m*3 15.7 C 6.4 km/h
199 30-04-2020 16:30:00 15.7 C 8.43 g/m*3 15.7 C 8.1 km/h
200 30-04-2020 16:35:00 15.7 C 8.43 g/m*3 15.7 C 6.4 km/h
Sensor: Nr:Datum:Temp:Abs-Feuchte:Windchill:Wind:
Aussen-T/F 201 30-04-2020 16:40:00 15.7 C 8.3 g/m*3 15.7 C 6.4 km/h
202 30-04-2020 16:45:00 15.7 C 8.3 g/m*3 15.7 C 6.4 km/h
203 30-04-2020 16:50:00 15.7 C 8.16 g/m*3 15.7 C 8.1 km/h
204 30-04-2020 16:55:00 15.6 C 8.38 g/m*3 15.6 C 6.4 km/h
205 30-04-2020 17:00:00 15.4 C 8.41 g/m*3 15.4 C 1.6 km/h
206 30-04-2020 17:05:00 15.3 C 8.49 g/m*3 15.3 C 11.3 km/h
207 30-04-2020 17:10:00 15 C 9.1 g/m*3 15 C 4.8 km/h
208 30-04-2020 17:15:00 14.5 C 9.08 g/m*3 14.5 C 16.1 km/h
209 30-04-2020 17:20:00 14.1 C 9.34 g/m*3 14.1 C 4.8 km/h
210 30-04-2020 17:25:00 13.6 C 9.3 g/m*3 13.6 C 8.1 km/h
211 30-04-2020 17:30:00 13.1 C 9.24 g/m*3 13.1 C 9.7 km/h
212 30-04-2020 17:35:00 12.6 C 9.18 g/m*3 12.6 C 12.9 km/h
213 30-04-2020 17:40:00 12.1 C 9.12 g/m*3 12.1 C 9.7 km/h
214 30-04-2020 17:45:00 11.8 C 9.05 g/m*3 11.8 C 14.5 km/h
215 30-04-2020 17:50:00 11.6 C 9.15 g/m*3 11.6 C 11.3 km/h
216 30-04-2020 17:55:00 11.4 C 9.03 g/m*3 11.4 C 9.7 km/h
217 30-04-2020 18:00:00 11.3 C 9.08 g/m*3 11.3 C 11.3 km/h
218 30-04-2020 18:05:00 11.2 C 9.12 g/m*3 11.2 C 8.1 km/h
219 30-04-2020 18:10:00 11.2 C 9.12 g/m*3 11.2 C 11.3 km/h
220 30-04-2020 18:15:00 11.1 C 9.07 g/m*3 11.1 C 11.3 km/h
221 30-04-2020 18:20:00 11 C 9.11 g/m*3 10.52 C 6.4 km/h
222 30-04-2020 18:25:00 10.9 C 8.95 g/m*3 9.76 C 9.7 km/h
223 30-04-2020 18:30:00 10.9 C 9.05 g/m*3 10.9 C 3.2 km/h
224 30-04-2020 18:35:00 10.8 C 8.99 g/m*3 10.29 C 6.4 km/h
225 30-04-2020 18:40:00 10.7 C 8.94 g/m*3 9.04 C 12.9 km/h
Sensor: Nr:Datum:Temp:Abs-Feuchte:Windchill:Wind:
Aussen-T/F 226 30-04-2020 18:45:00 10.6 C 8.88 g/m*3 8.71 C 14.5 km/h
227 30-04-2020 18:50:00 10.5 C 8.83 g/m*3 8.23 C 17.7 km/h
228 30-04-2020 18:55:00 10.4 C 8.77 g/m*3 8.9 C 11.3 km/h
229 30-04-2020 19:00:00 10.3 C 8.71 g/m*3 7.82 C 19.3 km/h
230 30-04-2020 19:05:00 10.2 C 8.66 g/m*3 8.22 C 14.5 km/h
231 30-04-2020 19:10:00 10 C 8.55 g/m*3 8.19 C 12.9 km/h
232 30-04-2020 19:15:00 9.9 C 8.5 g/m*3 8.87 C 8.1 km/h
233 30-04-2020 19:20:00 10.2 C 8.85 g/m*3 10.2 C 3.2 km/h
234 30-04-2020 19:25:00 10.6 C 9.08 g/m*3 10.6 C 4.8 km/h
235 30-04-2020 19:30:00 10.8 C 8.99 g/m*3 10.8 C 4.8 km/h
236 30-04-2020 19:35:00 11.1 C 9.27 g/m*3 11.1 C 3.2 km/h
237 30-04-2020 19:40:00 11.1 C 9.17 g/m*3 11.1 C 6.4 km/h
238 30-04-2020 19:45:00 11.2 C 9.22 g/m*3 11.2 C 0 km/h
239 30-04-2020 19:50:00 11.2 C 9.22 g/m*3 11.2 C 1.6 km/h
240 30-04-2020 19:55:00 11.3 C 9.28 g/m*3 11.3 C 1.6 km/h
241 30-04-2020 20:00:00 11.2 C 9.22 g/m*3 11.2 C 1.6 km/h
242 30-04-2020 20:05:00 11.1 C 9.17 g/m*3 11.1 C 1.6 km/h
243 30-04-2020 20:10:00 10.9 C 9.05 g/m*3 10.9 C 0 km/h
244 30-04-2020 20:15:00 10.8 C 8.99 g/m*3 10.8 C 0 km/h
245 30-04-2020 20:20:00 10.7 C 8.94 g/m*3 10.7 C 1.6 km/h
246 30-04-2020 20:25:00 10.5 C 8.83 g/m*3 10.5 C 1.6 km/h
247 30-04-2020 20:30:00 10.3 C 8.71 g/m*3 10.3 C 3.2 km/h
248 30-04-2020 20:35:00 10.2 C 8.66 g/m*3 10.2 C 4.8 km/h
249 30-04-2020 20:40:00 9.9 C 8.5 g/m*3 9.9 C 4.8 km/h
250 30-04-2020 20:45:00 9.8 C 8.44 g/m*3 9.8 C 1.6 km/h
Sensor: Nr:Datum:Temp:Abs-Feuchte:Windchill:Wind:
Aussen-T/F 251 30-04-2020 20:50:00 9.6 C 8.34 g/m*3 9.6 C 0 km/h
252 30-04-2020 20:55:00 9.5 C 8.37 g/m*3 9.5 C 0 km/h
253 30-04-2020 21:00:00 9.4 C 8.32 g/m*3 9.4 C 0 km/h
254 30-04-2020 21:05:00 9.4 C 8.32 g/m*3 9.4 C 0 km/h
255 30-04-2020 21:10:00 9.3 C 8.36 g/m*3 9.3 C 3.2 km/h
256 30-04-2020 21:15:00 9.3 C 8.36 g/m*3 9.3 C 3.2 km/h
257 30-04-2020 21:20:00 9.3 C 8.36 g/m*3 9.3 C 0 km/h
258 30-04-2020 21:25:00 9.4 C 8.41 g/m*3 9.4 C 0 km/h
259 30-04-2020 21:30:00 9.4 C 8.5 g/m*3 9.4 C 1.6 km/h
260 30-04-2020 21:35:00 9.4 C 8.5 g/m*3 9.4 C 0 km/h
261 30-04-2020 21:40:00 9.5 C 8.56 g/m*3 9.5 C 0 km/h
262 30-04-2020 21:45:00 9.5 C 8.56 g/m*3 9.5 C 1.6 km/h
263 30-04-2020 21:50:00 9.6 C 8.61 g/m*3 9.6 C 1.6 km/h
264 30-04-2020 21:55:00 9.6 C 8.61 g/m*3 9.6 C 1.6 km/h
265 30-04-2020 22:00:00 9.6 C 8.61 g/m*3 9.6 C 0 km/h
266 30-04-2020 22:05:00 9.5 C 8.56 g/m*3 9.5 C 3.2 km/h
267 30-04-2020 22:10:00 9.3 C 8.45 g/m*3 9.3 C 3.2 km/h
268 30-04-2020 22:15:00 9.2 C 8.39 g/m*3 9.2 C 3.2 km/h
269 30-04-2020 22:20:00 9.1 C 8.34 g/m*3 9.1 C 4.8 km/h
270 30-04-2020 22:25:00 9.1 C 8.34 g/m*3 9.1 C 3.2 km/h
271 30-04-2020 22:30:00 9.2 C 8.48 g/m*3 9.2 C 0 km/h
272 30-04-2020 22:35:00 9.3 C 8.54 g/m*3 9.3 C 0 km/h
273 30-04-2020 22:40:00 9.2 C 8.48 g/m*3 9.2 C 0 km/h
274 30-04-2020 22:45:00 9.2 C 8.48 g/m*3 8.45 C 6.4 km/h
275 30-04-2020 22:50:00 9.1 C 8.43 g/m*3 9.1 C 3.2 km/h
Sensor: Nr:Datum:Temp:Abs-Feuchte:Windchill:Wind:
Aussen-T/F 276 30-04-2020 22:55:00 9 C 8.38 g/m*3 9 C 0 km/h
277 30-04-2020 23:00:00 9.1 C 8.43 g/m*3 9.1 C 1.6 km/h
278 30-04-2020 23:05:00 9 C 8.38 g/m*3 9 C 3.2 km/h
279 30-04-2020 23:10:00 8.9 C 8.32 g/m*3 8.9 C 3.2 km/h
280 30-04-2020 23:15:00 8.8 C 8.27 g/m*3 8.8 C 0 km/h
281 30-04-2020 23:20:00 8.8 C 8.27 g/m*3 8.8 C 4.8 km/h
282 30-04-2020 23:25:00 8.8 C 8.27 g/m*3 8.8 C 1.6 km/h
283 30-04-2020 23:30:00 8.8 C 8.27 g/m*3 8.8 C 4.8 km/h
284 30-04-2020 23:35:00 8.8 C 8.27 g/m*3 8.8 C 3.2 km/h
285 30-04-2020 23:40:00 8.9 C 8.32 g/m*3 7.69 C 8.1 km/h
286 30-04-2020 23:45:00 9.2 C 8.57 g/m*3 7.21 C 12.9 km/h
287 30-04-2020 23:50:00 9.3 C 8.63 g/m*3 8.16 C 8.1 km/h
288 30-04-2020 23:55:00 9.4 C 8.68 g/m*3 7.97 C 9.7 km/h
289 01-05-2020 00:00:00 9.4 C 8.59 g/m*3 7.97 C 9.7 km/h
290 01-05-2020 00:05:00 9.3 C 8.54 g/m*3 8.56 C 6.4 km/h
291 01-05-2020 00:10:00 9.3 C 8.54 g/m*3 8.56 C 6.4 km/h
292 01-05-2020 00:15:00 9.2 C 8.48 g/m*3 9.2 C 3.2 km/h
293 01-05-2020 00:20:00 9.1 C 8.43 g/m*3 8.33 C 6.4 km/h
294 01-05-2020 00:25:00 8.9 C 8.32 g/m*3 7.37 C 9.7 km/h
295 01-05-2020 00:30:00 8.8 C 8.27 g/m*3 7.98 C 6.4 km/h
296 01-05-2020 00:35:00 8.8 C 8.27 g/m*3 7.58 C 8.1 km/h
297 01-05-2020 00:40:00 8.7 C 8.22 g/m*3 8.7 C 4.8 km/h
298 01-05-2020 00:45:00 8.7 C 8.22 g/m*3 7.87 C 6.4 km/h
299 01-05-2020 00:50:00 8.6 C 8.16 g/m*3 8.6 C 3.2 km/h
300 01-05-2020 00:55:00 8.4 C 8.06 g/m*3 7.52 C 6.4 km/h
Sensor: Nr:Datum:Temp:Abs-Feuchte:Windchill:Wind:
Aussen-T/F 301 01-05-2020 01:00:00 8.3 C 8.01 g/m*3 7.41 C 6.4 km/h
302 01-05-2020 01:05:00 8.3 C 8.01 g/m*3 6.99 C 8.1 km/h
303 01-05-2020 01:10:00 8.3 C 8.01 g/m*3 8.3 C 4.8 km/h
304 01-05-2020 01:15:00 8.4 C 8.06 g/m*3 6.78 C 9.7 km/h
305 01-05-2020 01:20:00 8.4 C 8.06 g/m*3 6.01 C 14.5 km/h
306 01-05-2020 01:25:00 8.4 C 8.06 g/m*3 8.4 C 4.8 km/h
307 01-05-2020 01:30:00 8.3 C 8.01 g/m*3 6.37 C 11.3 km/h
308 01-05-2020 01:35:00 8.3 C 8.01 g/m*3 6.37 C 11.3 km/h
309 01-05-2020 01:40:00 8.3 C 8.01 g/m*3 6.37 C 11.3 km/h
310 01-05-2020 01:45:00 8.3 C 8.01 g/m*3 5.48 C 17.7 km/h
311 01-05-2020 01:50:00 8.3 C 7.92 g/m*3 7.41 C 6.4 km/h
312 01-05-2020 01:55:00 8.3 C 7.92 g/m*3 6.66 C 9.7 km/h
313 01-05-2020 02:00:00 8.3 C 7.92 g/m*3 5.68 C 16.1 km/h
314 01-05-2020 02:05:00 8.3 C 7.92 g/m*3 6.99 C 8.1 km/h
315 01-05-2020 02:10:00 8.3 C 7.92 g/m*3 7.41 C 6.4 km/h
316 01-05-2020 02:15:00 8.2 C 7.87 g/m*3 6.87 C 8.1 km/h
317 01-05-2020 02:20:00 8.2 C 7.87 g/m*3 7.29 C 6.4 km/h
318 01-05-2020 02:25:00 8.1 C 7.82 g/m*3 6.75 C 8.1 km/h
319 01-05-2020 02:30:00 8.1 C 7.82 g/m*3 7.17 C 6.4 km/h
320 01-05-2020 02:35:00 8 C 7.77 g/m*3 6.3 C 9.7 km/h
321 01-05-2020 02:40:00 8.1 C 7.82 g/m*3 6.42 C 9.7 km/h
322 01-05-2020 02:45:00 8.1 C 7.82 g/m*3 7.17 C 6.4 km/h
323 01-05-2020 02:50:00 8.1 C 7.82 g/m*3 7.17 C 6.4 km/h
324 01-05-2020 02:55:00 8.1 C 7.82 g/m*3 7.17 C 6.4 km/h
325 01-05-2020 03:00:00 8.1 C 7.82 g/m*3 8.1 C 1.6 km/h
Sensor: Nr:Datum:Temp:Abs-Feuchte:Windchill:Wind:
Aussen-T/F 326 01-05-2020 03:05:00 8 C 7.77 g/m*3 8 C 1.6 km/h
327 01-05-2020 03:10:00 7.9 C 7.72 g/m*3 6.94 C 6.4 km/h
328 01-05-2020 03:15:00 7.9 C 7.72 g/m*3 6.52 C 8.1 km/h
329 01-05-2020 03:20:00 7.9 C 7.8 g/m*3 7.9 C 4.8 km/h
330 01-05-2020 03:25:00 8.1 C 7.9 g/m*3 8.1 C 4.8 km/h
331 01-05-2020 03:30:00 8.1 C 7.9 g/m*3 8.1 C 4.8 km/h
332 01-05-2020 03:35:00 8.2 C 7.96 g/m*3 6.87 C 8.1 km/h
333 01-05-2020 03:40:00 8.2 C 7.96 g/m*3 6.54 C 9.7 km/h
334 01-05-2020 03:45:00 8.2 C 7.87 g/m*3 8.2 C 4.8 km/h
335 01-05-2020 03:50:00 8.2 C 7.87 g/m*3 8.2 C 4.8 km/h
336 01-05-2020 03:55:00 8.1 C 7.82 g/m*3 8.1 C 4.8 km/h
337 01-05-2020 04:00:00 8 C 7.77 g/m*3 8 C 4.8 km/h
338 01-05-2020 04:05:00 7.9 C 7.72 g/m*3 6.94 C 6.4 km/h
339 01-05-2020 04:10:00 7.9 C 7.72 g/m*3 7.9 C 3.2 km/h
340 01-05-2020 04:15:00 7.8 C 7.67 g/m*3 7.8 C 3.2 km/h
341 01-05-2020 04:20:00 7.7 C 7.62 g/m*3 7.7 C 1.6 km/h
342 01-05-2020 04:25:00 7.6 C 7.57 g/m*3 7.6 C 0 km/h
343 01-05-2020 04:30:00 7.6 C 7.65 g/m*3 7.6 C 0 km/h
344 01-05-2020 04:35:00 7.7 C 7.7 g/m*3 7.7 C 0 km/h
345 01-05-2020 04:40:00 7.8 C 7.75 g/m*3 7.8 C 0 km/h
346 01-05-2020 04:45:00 7.9 C 7.8 g/m*3 7.9 C 0 km/h
347 01-05-2020 04:50:00 7.9 C 7.8 g/m*3 7.9 C 0 km/h
348 01-05-2020 04:55:00 8.1 C 7.9 g/m*3 8.1 C 0 km/h
349 01-05-2020 05:00:00 8.2 C 8.04 g/m*3 8.2 C 0 km/h
350 01-05-2020 05:05:00 8.2 C 8.04 g/m*3 8.2 C 0 km/h
Sensor: Nr:Datum:Temp:Abs-Feuchte:Windchill:Wind:
Aussen-T/F 351 01-05-2020 05:10:00 8.3 C 8.09 g/m*3 8.3 C 0 km/h
352 01-05-2020 05:15:00 8.4 C 8.14 g/m*3 8.4 C 1.6 km/h
353 01-05-2020 05:20:00 8.5 C 8.2 g/m*3 8.5 C 4.8 km/h
354 01-05-2020 05:25:00 8.5 C 8.2 g/m*3 8.5 C 1.6 km/h
355 01-05-2020 05:30:00 8.6 C 8.25 g/m*3 8.6 C 3.2 km/h
356 01-05-2020 05:35:00 8.6 C 8.25 g/m*3 6.05 C 16.1 km/h
357 01-05-2020 05:40:00 8.7 C 8.3 g/m*3 5.65 C 20.9 km/h
358 01-05-2020 05:45:00 8.8 C 8.27 g/m*3 7.58 C 8.1 km/h
359 01-05-2020 05:50:00 8.8 C 8.18 g/m*3 6.5 C 14.5 km/h
360 01-05-2020 05:55:00 8.7 C 8.13 g/m*3 6.17 C 16.1 km/h
361 01-05-2020 06:00:00 8.7 C 8.13 g/m*3 6.38 C 14.5 km/h
362 01-05-2020 06:05:00 8.6 C 7.99 g/m*3 7.34 C 8.1 km/h
363 01-05-2020 06:10:00 8.6 C 7.99 g/m*3 8.6 C 4.8 km/h
364 01-05-2020 06:15:00 8.5 C 7.94 g/m*3 7.22 C 8.1 km/h
365 01-05-2020 06:20:00 8.4 C 7.89 g/m*3 7.52 C 6.4 km/h
366 01-05-2020 06:25:00 8.3 C 7.92 g/m*3 8.3 C 4.8 km/h
367 01-05-2020 06:30:00 8.3 C 7.84 g/m*3 7.41 C 6.4 km/h
368 01-05-2020 06:35:00 8.3 C 7.92 g/m*3 8.3 C 1.6 km/h
369 01-05-2020 06:40:00 8.3 C 7.92 g/m*3 8.3 C 4.8 km/h
370 01-05-2020 06:45:00 8.3 C 7.92 g/m*3 8.3 C 3.2 km/h
371 01-05-2020 06:50:00 8.2 C 7.87 g/m*3 8.2 C 4.8 km/h
372 01-05-2020 06:55:00 8.1 C 7.82 g/m*3 8.1 C 0 km/h
373 01-05-2020 07:00:00 7.9 C 7.72 g/m*3 7.9 C 0 km/h
374 01-05-2020 07:05:00 7.8 C 7.67 g/m*3 7.8 C 0 km/h
375 01-05-2020 07:10:00 7.7 C 7.62 g/m*3 7.7 C 0 km/h
Sensor: Nr:Datum:Temp:Abs-Feuchte:Windchill:Wind:
Aussen-T/F 376 01-05-2020 07:15:00 7.7 C 7.62 g/m*3 7.7 C 0 km/h
377 01-05-2020 07:20:00 7.8 C 7.67 g/m*3 7.8 C 0 km/h
378 01-05-2020 07:25:00 7.9 C 7.8 g/m*3 7.9 C 0 km/h
379 01-05-2020 07:30:00 8 C 7.85 g/m*3 8 C 0 km/h
380 01-05-2020 07:35:00 8.2 C 7.96 g/m*3 8.2 C 1.6 km/h
381 01-05-2020 07:40:00 8.3 C 8.01 g/m*3 8.3 C 0 km/h
382 01-05-2020 07:45:00 8.4 C 8.14 g/m*3 8.4 C 3.2 km/h
383 01-05-2020 07:50:00 8.5 C 8.11 g/m*3 6.9 C 9.7 km/h
384 01-05-2020 07:55:00 8.5 C 8.03 g/m*3 7.22 C 8.1 km/h
385 01-05-2020 08:00:00 8.6 C 8.08 g/m*3 8.6 C 3.2 km/h
386 01-05-2020 08:05:00 8.6 C 8.16 g/m*3 8.6 C 1.6 km/h
387 01-05-2020 08:10:00 8.7 C 8.22 g/m*3 8.7 C 3.2 km/h
388 01-05-2020 08:15:00 8.8 C 8.18 g/m*3 8.8 C 4.8 km/h
389 01-05-2020 08:20:00 8.8 C 8.18 g/m*3 8.8 C 0 km/h
390 01-05-2020 08:25:00 8.8 C 8.18 g/m*3 8.8 C 0 km/h
391 01-05-2020 08:30:00 8.8 C 8.18 g/m*3 8.8 C 0 km/h
392 01-05-2020 08:35:00 8.8 C 8.27 g/m*3 8.8 C 0 km/h
393 01-05-2020 08:40:00 8.9 C 8.32 g/m*3 8.9 C 0 km/h
394 01-05-2020 08:45:00 9 C 8.38 g/m*3 9 C 0 km/h
395 01-05-2020 08:50:00 9.1 C 8.43 g/m*3 9.1 C 0 km/h
396 01-05-2020 08:55:00 9.2 C 8.48 g/m*3 9.2 C 0 km/h
397 01-05-2020 09:00:00 9.4 C 8.59 g/m*3 9.4 C 0 km/h
398 01-05-2020 09:05:00 9.5 C 8.65 g/m*3 9.5 C 1.6 km/h
399 01-05-2020 09:10:00 9.6 C 8.7 g/m*3 9.6 C 1.6 km/h
400 01-05-2020 09:15:00 9.7 C 8.76 g/m*3 9.7 C 1.6 km/h
Sensor: Nr:Datum:Temp:Abs-Feuchte:Windchill:Wind:
Aussen-T/F 401 01-05-2020 09:20:00 9.8 C 8.81 g/m*3 9.8 C 4.8 km/h
402 01-05-2020 09:25:00 9.9 C 8.87 g/m*3 9.9 C 3.2 km/h
403 01-05-2020 09:30:00 10 C 8.93 g/m*3 10 C 4.8 km/h
404 01-05-2020 09:35:00 10.1 C 8.89 g/m*3 8.31 C 12.9 km/h
405 01-05-2020 09:40:00 10.2 C 8.85 g/m*3 9.6 C 6.4 km/h
406 01-05-2020 09:45:00 10.3 C 8.91 g/m*3 8.55 C 12.9 km/h
407 01-05-2020 09:50:00 10.3 C 8.71 g/m*3 9.04 C 9.7 km/h
408 01-05-2020 09:55:00 10.3 C 8.71 g/m*3 8.34 C 14.5 km/h
409 01-05-2020 10:00:00 10.4 C 8.67 g/m*3 9.46 C 8.1 km/h
410 01-05-2020 10:05:00 10.5 C 8.83 g/m*3 10.5 C 4.8 km/h
411 01-05-2020 10:10:00 10.5 C 8.63 g/m*3 8.8 C 12.9 km/h
412 01-05-2020 10:15:00 10.6 C 8.78 g/m*3 10.6 C 3.2 km/h
413 01-05-2020 10:20:00 10.6 C 8.69 g/m*3 9.4 C 9.7 km/h
414 01-05-2020 10:25:00 10.6 C 8.69 g/m*3 9.69 C 8.1 km/h
415 01-05-2020 10:30:00 10.7 C 8.74 g/m*3 9.52 C 9.7 km/h
416 01-05-2020 10:35:00 10.8 C 8.8 g/m*3 10.29 C 6.4 km/h
417 01-05-2020 10:40:00 10.9 C 8.75 g/m*3 9.76 C 9.7 km/h
418 01-05-2020 10:45:00 11.1 C 8.76 g/m*3 11.1 C 12.9 km/h
419 01-05-2020 10:50:00 11.3 C 8.67 g/m*3 11.3 C 12.9 km/h
420 01-05-2020 10:55:00 11.7 C 8.68 g/m*3 11.7 C 20.9 km/h
421 01-05-2020 11:00:00 11.8 C 8.63 g/m*3 11.8 C 12.9 km/h
422 01-05-2020 11:05:00 11.9 C 8.79 g/m*3 11.9 C 12.9 km/h
423 01-05-2020 11:10:00 11.9 C 8.58 g/m*3 11.9 C 14.5 km/h
424 01-05-2020 11:15:00 12 C 8.74 g/m*3 12 C 9.7 km/h
425 01-05-2020 11:20:00 12.2 C 8.74 g/m*3 12.2 C 16.1 km/h
Sensor: Nr:Datum:Temp:Abs-Feuchte:Windchill:Wind:
Aussen-T/F 426 01-05-2020 11:25:00 12.3 C 8.69 g/m*3 12.3 C 14.5 km/h
427 01-05-2020 11:30:00 12.3 C 8.47 g/m*3 12.3 C 14.5 km/h
428 01-05-2020 11:35:00 12.4 C 8.52 g/m*3 12.4 C 16.1 km/h
429 01-05-2020 11:40:00 12.5 C 8.58 g/m*3 12.5 C 11.3 km/h
430 01-05-2020 11:45:00 12.6 C 8.52 g/m*3 12.6 C 11.3 km/h
431 01-05-2020 11:50:00 12.6 C 8.74 g/m*3 12.6 C 9.7 km/h
432 01-05-2020 11:55:00 12.5 C 8.58 g/m*3 12.5 C 9.7 km/h
433 01-05-2020 12:00:00 12.5 C 8.8 g/m*3 12.5 C 6.4 km/h
434 01-05-2020 12:05:00 12.5 C 8.69 g/m*3 12.5 C 4.8 km/h
435 01-05-2020 12:10:00 12.3 C 8.47 g/m*3 12.3 C 11.3 km/h
436 01-05-2020 12:15:00 12.2 C 8.52 g/m*3 12.2 C 9.7 km/h
437 01-05-2020 12:20:00 12.2 C 8.63 g/m*3 12.2 C 11.3 km/h
438 01-05-2020 12:25:00 12.2 C 8.74 g/m*3 12.2 C 11.3 km/h
439 01-05-2020 12:30:00 12 C 8.63 g/m*3 12 C 12.9 km/h
440 01-05-2020 12:35:00 11.8 C 8.74 g/m*3 11.8 C 11.3 km/h
441 01-05-2020 12:40:00 11.7 C 8.79 g/m*3 11.7 C 11.3 km/h
442 01-05-2020 12:45:00 11.6 C 8.94 g/m*3 11.6 C 8.1 km/h
443 01-05-2020 12:50:00 11.3 C 8.87 g/m*3 11.3 C 8.1 km/h
444 01-05-2020 12:55:00 11.3 C 8.98 g/m*3 11.3 C 9.7 km/h
445 01-05-2020 13:00:00 11.2 C 8.82 g/m*3 11.2 C 8.1 km/h
446 01-05-2020 13:05:00 11.1 C 8.76 g/m*3 11.1 C 12.9 km/h
447 01-05-2020 13:10:00 10.9 C 8.55 g/m*3 9.51 C 11.3 km/h
448 01-05-2020 13:15:00 10.7 C 8.35 g/m*3 8.84 C 14.5 km/h
449 01-05-2020 13:20:00 10.6 C 8.39 g/m*3 8.71 C 14.5 km/h
450 01-05-2020 13:25:00 10.8 C 8.6 g/m*3 10.8 C 3.2 km/h
Sensor: Nr:Datum:Temp:Abs-Feuchte:Windchill:Wind:
Aussen-T/F 451 01-05-2020 13:30:00 10.9 C 8.55 g/m*3 9.51 C 11.3 km/h
452 01-05-2020 13:35:00 11.1 C 8.56 g/m*3 11.1 C 6.4 km/h
453 01-05-2020 13:40:00 11.2 C 8.62 g/m*3 11.2 C 12.9 km/h
454 01-05-2020 13:45:00 11.4 C 8.52 g/m*3 11.4 C 16.1 km/h
455 01-05-2020 13:50:00 11.6 C 8.63 g/m*3 11.6 C 14.5 km/h
456 01-05-2020 13:55:00 11.9 C 8.68 g/m*3 11.9 C 9.7 km/h
457 01-05-2020 14:00:00 12 C 8.63 g/m*3 12 C 14.5 km/h
458 01-05-2020 14:05:00 12 C 8.63 g/m*3 12 C 11.3 km/h
459 01-05-2020 14:10:00 12.2 C 8.74 g/m*3 12.2 C 16.1 km/h
460 01-05-2020 14:15:00 12.4 C 8.52 g/m*3 12.4 C 11.3 km/h
461 01-05-2020 14:20:00 12.7 C 8.79 g/m*3 12.7 C 8.1 km/h
462 01-05-2020 14:25:00 12.9 C 8.45 g/m*3 12.9 C 19.3 km/h
463 01-05-2020 14:30:00 13.2 C 8.61 g/m*3 13.2 C 12.9 km/h
464 01-05-2020 14:35:00 13.3 C 8.43 g/m*3 13.3 C 14.5 km/h
465 01-05-2020 14:40:00 13.4 C 8.37 g/m*3 13.4 C 19.3 km/h
466 01-05-2020 14:45:00 13.6 C 8.71 g/m*3 13.6 C 17.7 km/h
467 01-05-2020 14:50:00 13.7 C 8.53 g/m*3 13.7 C 16.1 km/h
468 01-05-2020 14:55:00 13.7 C 8.29 g/m*3 13.7 C 12.9 km/h
469 01-05-2020 15:00:00 13.8 C 8.1 g/m*3 13.8 C 16.1 km/h
470 01-05-2020 15:05:00 14 C 8.32 g/m*3 14 C 14.5 km/h
471 01-05-2020 15:10:00 14.2 C 8.3 g/m*3 14.2 C 14.5 km/h
472 01-05-2020 15:15:00 14.3 C 8.48 g/m*3 14.3 C 16.1 km/h
473 01-05-2020 15:20:00 14.6 C 8.63 g/m*3 14.6 C 11.3 km/h
474 01-05-2020 15:25:00 14.6 C 8.26 g/m*3 14.6 C 12.9 km/h
475 01-05-2020 15:30:00 14.4 C 8.41 g/m*3 14.4 C 8.1 km/h
Sensor: Nr:Datum:Temp:Abs-Feuchte:Windchill:Wind:
Aussen-T/F 476 01-05-2020 15:35:00 14.3 C 8.48 g/m*3 14.3 C 6.4 km/h
477 01-05-2020 15:40:00 14.1 C 8.37 g/m*3 14.1 C 14.5 km/h
478 01-05-2020 15:45:00 13.7 C 8.41 g/m*3 13.7 C 14.5 km/h
479 01-05-2020 15:50:00 13 C 8.73 g/m*3 13 C 25.7 km/h
480 01-05-2020 15:55:00 12.6 C 8.85 g/m*3 12.6 C 11.3 km/h
481 01-05-2020 16:00:00 12.3 C 8.69 g/m*3 12.3 C 9.7 km/h
482 01-05-2020 16:05:00 12.6 C 8.96 g/m*3 12.6 C 12.9 km/h
483 01-05-2020 16:10:00 13.1 C 9.24 g/m*3 13.1 C 9.7 km/h
484 01-05-2020 16:15:00 13.7 C 9.24 g/m*3 13.7 C 8.1 km/h
485 01-05-2020 16:20:00 14.3 C 9.21 g/m*3 14.3 C 17.7 km/h
486 01-05-2020 16:25:00 14.7 C 9.07 g/m*3 14.7 C 14.5 km/h
487 01-05-2020 16:30:00 15.1 C 9.29 g/m*3 15.1 C 16.1 km/h
488 01-05-2020 16:35:00 15.4 C 9.2 g/m*3 15.4 C 14.5 km/h
489 01-05-2020 16:40:00 15.7 C 9.23 g/m*3 15.7 C 16.1 km/h
490 01-05-2020 16:45:00 15.7 C 9.1 g/m*3 15.7 C 14.5 km/h
491 01-05-2020 16:50:00 15.6 C 9.04 g/m*3 15.6 C 14.5 km/h
492 01-05-2020 16:55:00 15.4 C 9.07 g/m*3 15.4 C 12.9 km/h
493 01-05-2020 17:00:00 15.6 C 9.04 g/m*3 15.6 C 12.9 km/h
494 01-05-2020 17:05:00 15.8 C 9.15 g/m*3 15.8 C 14.5 km/h
495 01-05-2020 17:10:00 15.9 C 9.34 g/m*3 15.9 C 11.3 km/h
496 01-05-2020 17:15:00 16.2 C 8.96 g/m*3 16.2 C 16.1 km/h
497 01-05-2020 17:20:00 16.1 C 8.91 g/m*3 16.1 C 17.7 km/h
498 01-05-2020 17:25:00 15.7 C 8.96 g/m*3 15.7 C 11.3 km/h
499 01-05-2020 17:30:00 15 C 8.85 g/m*3 15 C 14.5 km/h
500 01-05-2020 17:35:00 14.3 C 9.09 g/m*3 14.3 C 17.7 km/h
Sensor: Nr:Datum:Temp:Abs-Feuchte:Windchill:Wind:
Aussen-T/F 501 01-05-2020 17:40:00 13.6 C 9.18 g/m*3 13.6 C 14.5 km/h
502 01-05-2020 17:45:00 13.3 C 9.13 g/m*3 13.3 C 8.1 km/h
503 01-05-2020 17:50:00 12.9 C 8.79 g/m*3 12.9 C 11.3 km/h
504 01-05-2020 17:55:00 12.8 C 8.85 g/m*3 12.8 C 8.1 km/h
505 01-05-2020 18:00:00 12.8 C 9.07 g/m*3 12.8 C 4.8 km/h
506 01-05-2020 18:05:00 12.9 C 9.35 g/m*3 12.9 C 3.2 km/h
507 01-05-2020 18:10:00 12.9 C 9.47 g/m*3 12.9 C 3.2 km/h
508 01-05-2020 18:15:00 12.8 C 9.18 g/m*3 12.8 C 6.4 km/h
509 01-05-2020 18:20:00 12.7 C 8.91 g/m*3 12.7 C 6.4 km/h
510 01-05-2020 18:25:00 12.8 C 9.07 g/m*3 12.8 C 9.7 km/h
511 01-05-2020 18:30:00 13.3 C 9.36 g/m*3 13.3 C 4.8 km/h
512 01-05-2020 18:35:00 13.7 C 9.47 g/m*3 13.7 C 4.8 km/h
513 01-05-2020 18:40:00 13.8 C 9.65 g/m*3 13.8 C 4.8 km/h
514 01-05-2020 18:45:00 14.3 C 10.07 g/m*3 14.3 C 8.1 km/h
515 01-05-2020 18:50:00 14.8 C 9.25 g/m*3 14.8 C 6.4 km/h
516 01-05-2020 18:55:00 14.6 C 9.01 g/m*3 14.6 C 8.1 km/h
517 01-05-2020 19:00:00 14.2 C 8.79 g/m*3 14.2 C 9.7 km/h
518 01-05-2020 19:05:00 13.8 C 9.06 g/m*3 13.8 C 4.8 km/h
519 01-05-2020 19:10:00 13.6 C 9.06 g/m*3 13.6 C 4.8 km/h
520 01-05-2020 19:15:00 13.2 C 8.84 g/m*3 13.2 C 6.4 km/h
521 01-05-2020 19:20:00 12.8 C 8.85 g/m*3 12.8 C 4.8 km/h
522 01-05-2020 19:25:00 12.6 C 8.85 g/m*3 12.6 C 6.4 km/h
523 01-05-2020 19:30:00 12.3 C 8.69 g/m*3 12.3 C 4.8 km/h
524 01-05-2020 19:35:00 12.1 C 8.58 g/m*3 12.1 C 9.7 km/h
525 01-05-2020 19:40:00 12 C 8.63 g/m*3 12 C 6.4 km/h
Sensor: Nr:Datum:Temp:Abs-Feuchte:Windchill:Wind:
Aussen-T/F 526 01-05-2020 19:45:00 11.9 C 8.58 g/m*3 11.9 C 8.1 km/h
527 01-05-2020 19:50:00 11.8 C 8.63 g/m*3 11.8 C 11.3 km/h
528 01-05-2020 19:55:00 11.7 C 8.58 g/m*3 11.7 C 4.8 km/h
529 01-05-2020 20:00:00 11.6 C 8.52 g/m*3 11.6 C 9.7 km/h
530 01-05-2020 20:05:00 11.4 C 8.31 g/m*3 11.4 C 9.7 km/h
531 01-05-2020 20:10:00 11.3 C 8.26 g/m*3 11.3 C 9.7 km/h
532 01-05-2020 20:15:00 11.3 C 8.36 g/m*3 11.3 C 8.1 km/h
533 01-05-2020 20:20:00 11.4 C 8.21 g/m*3 11.4 C 9.7 km/h
534 01-05-2020 20:25:00 11.4 C 8.11 g/m*3 11.4 C 8.1 km/h
535 01-05-2020 20:30:00 11.4 C 8.11 g/m*3 11.4 C 8.1 km/h
536 01-05-2020 20:35:00 11.3 C 8.16 g/m*3 11.3 C 4.8 km/h
537 01-05-2020 20:40:00 11.2 C 8.21 g/m*3 11.2 C 6.4 km/h
538 01-05-2020 20:45:00 11.1 C 8.26 g/m*3 11.1 C 8.1 km/h
539 01-05-2020 20:50:00 10.9 C 8.26 g/m*3 10.9 C 4.8 km/h
540 01-05-2020 20:55:00 10.8 C 8.3 g/m*3 10.8 C 1.6 km/h
541 01-05-2020 21:00:00 10.7 C 8.25 g/m*3 10.7 C 4.8 km/h
542 01-05-2020 21:05:00 10.6 C 8.3 g/m*3 10.6 C 4.8 km/h
543 01-05-2020 21:10:00 10.5 C 8.24 g/m*3 9.28 C 9.7 km/h
544 01-05-2020 21:15:00 10.4 C 8.19 g/m*3 10.4 C 3.2 km/h
545 01-05-2020 21:20:00 10.4 C 8.19 g/m*3 9.16 C 9.7 km/h
546 01-05-2020 21:25:00 10.4 C 8.29 g/m*3 10.4 C 3.2 km/h
547 01-05-2020 21:30:00 10.3 C 8.24 g/m*3 9.72 C 6.4 km/h
548 01-05-2020 21:35:00 10.3 C 8.24 g/m*3 10.3 C 1.6 km/h
549 01-05-2020 21:40:00 10.2 C 8.18 g/m*3 10.2 C 4.8 km/h
550 01-05-2020 21:45:00 10 C 8.08 g/m*3 10 C 3.2 km/h
Sensor: Nr:Datum:Temp:Abs-Feuchte:Windchill:Wind:
Aussen-T/F 551 01-05-2020 21:50:00 9.8 C 7.98 g/m*3 9.8 C 4.8 km/h
552 01-05-2020 21:55:00 9.6 C 7.97 g/m*3 9.6 C 4.8 km/h
553 01-05-2020 22:00:00 9.4 C 7.87 g/m*3 9.4 C 4.8 km/h
554 01-05-2020 22:05:00 9.3 C 7.91 g/m*3 9.3 C 4.8 km/h
555 01-05-2020 22:10:00 9.2 C 7.86 g/m*3 9.2 C 3.2 km/h
556 01-05-2020 22:15:00 9.1 C 7.9 g/m*3 9.1 C 3.2 km/h
557 01-05-2020 22:20:00 9.1 C 7.9 g/m*3 9.1 C 3.2 km/h
558 01-05-2020 22:25:00 9.1 C 7.9 g/m*3 9.1 C 3.2 km/h
559 01-05-2020 22:30:00 9.2 C 7.95 g/m*3 8.05 C 8.1 km/h
560 01-05-2020 22:35:00 9.3 C 8 g/m*3 8.16 C 8.1 km/h
561 01-05-2020 22:40:00 9.4 C 8.05 g/m*3 8.68 C 6.4 km/h
562 01-05-2020 22:45:00 9.4 C 8.05 g/m*3 7.97 C 9.7 km/h
563 01-05-2020 22:50:00 9.4 C 8.05 g/m*3 9.4 C 4.8 km/h
564 01-05-2020 22:55:00 9.5 C 8.1 g/m*3 9.5 C 1.6 km/h
565 01-05-2020 23:00:00 9.5 C 8.1 g/m*3 8.79 C 6.4 km/h
566 01-05-2020 23:05:00 9.5 C 8.1 g/m*3 8.4 C 8.1 km/h
567 01-05-2020 23:10:00 9.6 C 8.15 g/m*3 8.52 C 8.1 km/h
568 01-05-2020 23:15:00 9.5 C 8.1 g/m*3 8.09 C 9.7 km/h
569 01-05-2020 23:20:00 9.6 C 8.15 g/m*3 7.94 C 11.3 km/h
570 01-05-2020 23:25:00 9.6 C 8.15 g/m*3 8.91 C 6.4 km/h
571 01-05-2020 23:30:00 9.6 C 8.15 g/m*3 8.21 C 9.7 km/h
572 01-05-2020 23:35:00 9.6 C 8.15 g/m*3 7.48 C 14.5 km/h
573 01-05-2020 23:40:00 9.6 C 8.06 g/m*3 8.21 C 9.7 km/h
574 01-05-2020 23:45:00 9.7 C 8.11 g/m*3 8.33 C 9.7 km/h
575 01-05-2020 23:50:00 9.7 C 8.11 g/m*3 8.06 C 11.3 km/h
Sensor: Nr:Datum:Temp:Abs-Feuchte:Windchill:Wind:
Aussen-T/F 576 01-05-2020 23:55:00 9.7 C 8.11 g/m*3 9.7 C 4.8 km/h

Legende:
   Min
   Max


Maximal/Minimal-Werte vom 23.02.2003 - 02.05.2020

Sensor Min Max Avg
Temp
(Aussen-T/F)
-16.4 °C
20-12-2009  01:30:01
40.4 °C
25-07-2019  16:20:00
11.1 °C

Die Daten stammen von einer Davis Vantage Pro 2 Wetter-Station und werden unter Linux mit der Software wview2wettercgi und aufbereitet. Alle Angaben erfolgen ohne Gewähr für ihre Vollständigkeit oder Richtigkeit.
Kontakt: Rainer Krienke krienke@uni-koblenz.de . Meine Webseiten an der Uni Koblenz oder privat.
Version: $Revision: 0.78 $